Time;durP1;ratioP1;P1;durP2;ratioP2;P2;SDS_P1;SDS_P2;PMS_P1;PMS_P2;Temp;Humidity;BMP_temperature;BMP_pressure;BME280_temperature;BME280_humidity;BME280_pressure;Samples;Min_cycle;Max_cycle;Signal;HPM_P1;HPM_P2
2023/04/12 00:00:30;;;;;;;6.63;2.20;;;;;;;8.55;100.00;100570.19;5089786;28;20194;-35
2023/04/12 00:02:58;;;;;;;6.47;2.10;;;;;;;8.39;100.00;100542.78;5090345;28;20024;-36
2023/04/12 00:05:25;;;;;;;6.55;1.73;;;;;;;8.46;100.00;100557.03;5090283;28;20441;-35
2023/04/12 00:07:52;;;;;;;5.75;1.73;;;;;;;8.34;100.00;100542.59;5090467;28;20437;-36
2023/04/12 00:10:18;;;;;;;5.85;1.48;;;;;;;8.28;100.00;100519.25;5090286;28;20457;-36
2023/04/12 00:12:43;;;;;;;;;;;;;;;8.38;100.00;100529.53;5081476;28;20021;-36
2023/04/12 00:15:09;;;;;;;3.70;1.42;;;;;;;8.25;100.00;100511.63;5076333;28;20007;-36
2023/04/12 00:17:34;;;;;;;4.82;1.60;;;;;;;8.29;100.00;100520.88;5076285;28;20464;-36
2023/04/12 00:20:04;;;;;;;3.47;1.50;;;;;;;8.20;100.00;100509.59;5075941;28;20070;-36
2023/04/12 00:22:29;;;;;;;4.63;1.40;;;;;;;8.20;100.00;100511.47;5076749;28;20070;-35
2023/04/12 00:24:55;;;;;;;4.25;1.27;;;;;;;8.16;100.00;100494.94;5076472;28;20372;-35
2023/04/12 00:27:20;;;;;;;5.50;1.60;;;;;;;8.15;100.00;100478.97;5075883;28;20415;-36
2023/04/12 00:29:45;;;;;;;4.47;1.53;;;;;;;8.16;100.00;100480.66;5076698;28;20107;-36
2023/04/12 00:32:11;;;;;;;5.17;1.47;;;;;;;8.17;100.00;100479.59;5076368;28;20147;-36
2023/04/12 00:34:36;;;;;;;5.20;1.40;;;;;;;8.17;100.00;100469.63;5076061;28;20055;-36
2023/04/12 00:37:01;;;;;;;4.37;1.60;;;;;;;8.18;100.00;100457.81;5075987;28;20020;-36
2023/04/12 00:39:28;;;;;;;5.05;1.52;;;;;;;8.18;100.00;100447.03;5075654;28;20060;-35
2023/04/12 00:41:55;;;;;;;3.90;1.48;;;;;;;8.20;100.00;100449.53;5076466;28;20032;-36
2023/04/12 00:44:21;;;;;;;3.92;1.30;;;;;;;8.17;100.00;100439.19;5075843;28;20052;-36
2023/04/12 00:46:47;;;;;;;;;;;;;;;8.19;100.00;100432.53;5076815;28;20040;-36
2023/04/12 00:49:12;;;;;;;4.25;1.15;;;;;;;8.16;100.00;100430.28;5075450;28;19904;-36
2023/04/12 00:51:38;;;;;;;3.23;1.23;;;;;;;8.10;100.00;100406.13;5075778;28;20032;-35
2023/04/12 00:54:05;;;;;;;4.43;1.35;;;;;;;8.11;100.00;100418.56;5075664;28;20317;-36
2023/04/12 00:56:32;;;;;;;5.18;1.35;;;;;;;8.09;100.00;100412.56;5076153;28;20360;-36
2023/04/12 00:58:58;;;;;;;2.90;1.20;;;;;;;8.13;100.00;100411.88;5075525;28;20028;-35
2023/04/12 01:01:23;;;;;;;3.10;1.15;;;;;;;8.05;100.00;100379.84;5076457;28;20051;-35
2023/04/12 01:03:53;;;;;;;4.30;1.30;;;;;;;8.03;100.00;100390.03;5075204;28;20032;-35
2023/04/12 01:06:36;;;;;;;4.15;1.20;;;;;;;8.07;100.00;100385.84;5075077;28;20726;-35
2023/04/12 01:09:33;;;;;;;4.13;1.70;;;;;;;8.06;100.00;100370.75;5075678;28;20415;-36
2023/04/12 01:12:01;;;;;;;5.75;1.75;;;;;;;8.01;100.00;100343.69;5075592;28;20020;-36
2023/04/12 01:15:05;;;;;;;3.17;1.13;;;;;;;8.07;100.00;100341.97;5075197;28;20028;-36
2023/04/12 01:17:36;;;;;;;5.00;1.65;;;;;;;8.06;100.00;100338.44;5076045;28;20056;-36
2023/04/12 01:20:15;;;;;;;6.05;1.75;;;;;;;8.00;100.00;100307.00;5075340;28;20025;-35
2023/04/12 01:23:02;;;;;;;5.85;2.30;;;;;;;8.00;100.00;100307.00;5075055;28;20021;-36
2023/04/12 01:25:31;;;;;;;3.45;1.50;;;;;;;8.07;100.00;100313.16;5075003;28;20028;-35
2023/04/12 01:28:00;;;;;;;3.72;1.58;;;;;;;7.95;100.00;100301.50;5074911;28;20024;-35
2023/04/12 01:30:27;;;;;;;3.35;1.35;;;;;;;7.98;100.00;100301.88;5074765;28;20063;-36
2023/04/12 01:32:55;;;;;;;5.07;1.83;;;;;;;7.98;100.00;100293.78;5074818;28;20028;-35
2023/04/12 01:35:25;;;;;;;6.00;1.92;;;;;;;7.97;100.00;100292.16;5075661;28;20410;-36
2023/04/12 01:37:51;;;;;;;4.35;1.48;;;;;;;7.91;100.00;100279.59;5074683;28;20437;-35
2023/04/12 01:40:17;;;;;;;5.43;1.75;;;;;;;7.97;100.00;100276.00;5074694;28;20024;-36
2023/04/12 01:42:42;;;;;;;3.78;1.25;;;;;;;7.96;100.00;100265.47;5075166;28;20070;-35
2023/04/12 01:45:08;;;;;;;4.33;1.47;;;;;;;7.96;100.00;100260.06;5074721;28;20032;-36
2023/04/12 01:47:34;;;;;;;4.47;1.80;;;;;;;7.90;100.00;100256.41;5074612;28;20111;-35
2023/04/12 01:50:21;;;;;;;4.43;1.30;;;;;;;7.91;100.00;100252.69;5075067;28;20044;-36
2023/04/12 01:53:15;;;;;;;;;;;;;;;7.98;100.00;100252.59;5075235;28;20016;-36
2023/04/12 01:55:44;;;;;;;4.40;1.30;;;;;;;7.91;100.00;100247.28;5019662;28;19905;-35
2023/04/12 01:58:11;;;;;;;3.35;1.50;;;;;;;7.89;100.00;100240.47;5073986;28;20326;-35
2023/04/12 02:00:38;;;;;;;4.30;1.55;;;;;;;7.89;100.00;100238.59;5074526;28;20056;-35
2023/04/12 02:03:04;;;;;;;4.05;1.20;;;;;;;7.85;100.00;100221.25;5074240;28;20085;-35
2023/04/12 02:05:30;;;;;;;;;;;;;;;7.90;100.00;100207.94;5075233;28;20021;-35
2023/04/12 02:07:56;;;;;;;4.30;1.73;;;;;;;7.85;100.00;100188.16;5074117;28;20371;-35
2023/04/12 02:10:31;;;;;;;3.38;1.13;;;;;;;7.82;100.00;100183.25;5074981;28;20031;-35
2023/04/12 02:12:59;;;;;;;3.25;1.30;;;;;;;7.85;100.00;100188.16;5074368;28;20035;-35
2023/04/12 02:15:24;;;;;;;3.90;1.58;;;;;;;7.84;100.00;100178.44;5073643;28;20429;-35
2023/04/12 02:17:52;;;;;;;3.15;1.30;;;;;;;7.79;100.00;100168.34;5074310;28;20020;-35
2023/04/12 02:20:18;;;;;;;4.45;1.50;;;;;;;7.83;100.00;100163.34;5074471;28;20112;-35
2023/04/12 02:22:44;;;;;;;;;;;;;;;7.88;100.00;100166.97;5074351;28;20025;-35
2023/04/12 02:25:09;;;;;;;5.43;1.52;;;;;;;7.82;100.00;100157.13;5074189;28;19911;-35
2023/04/12 02:27:34;;;;;;;5.10;1.67;;;;;;;7.80;100.00;100153.03;5073659;28;20464;-36
2023/04/12 02:30:00;;;;;;;3.57;1.10;;;;;;;7.78;100.00;100133.59;5073882;28;20025;-35
2023/04/12 02:32:25;;;;;;;5.20;2.10;;;;;;;7.73;100.00;100128.91;5073565;28;20073;-35
2023/04/12 02:34:50;;;;;;;6.00;1.53;;;;;;;7.80;100.00;100126.09;5073951;28;20047;-35
2023/04/12 02:37:20;;;;;;;4.67;1.33;;;;;;;7.82;100.00;100115.94;5074291;28;20025;-35
2023/04/12 02:39:46;;;;;;;3.50;1.42;;;;;;;7.81;100.00;100111.59;5073412;28;20028;-35
2023/04/12 02:42:12;;;;;;;3.92;1.40;;;;;;;7.80;100.00;100110.78;5073715;28;20043;-35
2023/04/12 02:44:37;;;;;;;2.93;1.30;;;;;;;7.78;100.00;100096.75;5074010;28;20016;-36
2023/04/12 02:47:02;;;;;;;3.23;1.23;;;;;;;7.78;100.00;100085.16;5074004;28;20103;-36
2023/04/12 02:49:28;;;;;;;4.72;1.88;;;;;;;7.75;100.00;100084.56;5073664;28;20036;-35
2023/04/12 02:51:53;;;;;;;4.03;1.50;;;;;;;7.77;100.00;100073.56;5073686;28;20532;-36
2023/04/12 02:54:18;;;;;;;4.70;1.37;;;;;;;7.79;100.00;100066.06;5073608;28;20024;-36
2023/04/12 02:56:44;;;;;;;3.53;1.30;;;;;;;7.77;100.00;100062.00;5073614;28;20017;-36
2023/04/12 02:59:09;;;;;;;4.07;1.40;;;;;;;7.77;100.00;100051.22;5073819;28;20074;-35
2023/04/12 03:01:34;;;;;;;3.27;1.10;;;;;;;7.77;100.00;100046.66;5073860;28;20052;-36
2023/04/12 03:04:00;;;;;;;2.37;1.03;;;;;;;7.67;100.00;100023.00;5074345;28;20038;-38
2023/04/12 03:06:26;;;;;;;3.70;1.25;;;;;;;7.72;100.00;100033.91;5074117;28;20115;-35
2023/04/12 03:08:52;;;;;;;2.30;1.02;;;;;;;7.75;100.00;100025.34;5073512;28;20513;-35
2023/04/12 03:11:17;;;;;;;2.97;1.00;;;;;;;7.74;100.00;100025.59;5073467;28;20056;-36
2023/04/12 03:13:42;;;;;;;4.13;1.43;;;;;;;7.69;100.00;100012.00;5073744;28;20028;-36
2023/04/12 03:16:22;;;;;;;2.67;1.10;;;;;;;7.73;100.00;100011.31;5072829;28;20115;-36
2023/04/12 03:18:49;;;;;;;2.70;0.82;;;;;;;7.74;100.00;100004.06;5073909;28;20028;-36
2023/04/12 03:21:15;;;;;;;3.00;1.20;;;;;;;7.70;100.00;100003.69;5073280;28;20020;-35
2023/04/12 03:23:40;;;;;;;2.90;0.95;;;;;;;7.65;100.00;99987.41;5073303;28;20464;-36
2023/04/12 03:26:06;;;;;;;2.35;1.02;;;;;;;7.59;100.00;99984.84;5073950;28;20031;-35
2023/04/12 03:28:31;;;;;;;3.08;0.95;;;;;;;7.69;100.00;99993.16;5073904;28;20352;-36
2023/04/12 03:30:56;;;;;;;3.20;1.37;;;;;;;7.68;100.00;99989.66;5073360;28;20099;-36
2023/04/12 03:33:23;;;;;;;2.73;1.03;;;;;;;7.65;100.00;99986.59;5073233;28;20063;-37
2023/04/12 03:35:48;;;;;;;2.97;1.10;;;;;;;7.66;100.00;99986.41;5073018;28;20407;-35
2023/04/12 03:38:14;;;;;;;3.10;1.10;;;;;;;7.63;100.00;99981.47;5073181;28;20107;-35
2023/04/12 03:40:40;;;;;;;4.53;1.40;;;;;;;7.64;100.00;99977.72;5073403;28;20161;-35
2023/04/12 03:43:05;;;;;;;2.92;1.00;;;;;;;7.62;100.00;99973.63;5073121;28;20044;-35
2023/04/12 03:45:31;;;;;;;5.57;1.33;;;;;;;7.65;100.00;99967.78;5073694;28;20458;-36
2023/04/12 03:47:56;;;;;;;3.47;0.97;;;;;;;7.64;100.00;99966.94;5075287;28;20035;-35
2023/04/12 03:50:21;;;;;;;1.63;0.90;;;;;;;7.65;100.00;99963.19;5077198;28;20040;-36
2023/04/12 03:52:47;;;;;;;3.10;1.10;;;;;;;7.62;100.00;99957.50;5076788;28;20158;-36
2023/04/12 03:55:12;;;;;;;2.47;0.93;;;;;;;7.55;100.00;99930.69;5076777;28;20278;-36
2023/04/12 03:57:38;;;;;;;1.30;0.65;;;;;;;7.63;100.00;99937.59;5076675;28;20103;-36
2023/04/12 04:00:04;;;;;;;2.65;0.95;;;;;;;7.63;100.00;99929.53;5076460;28;20111;-35
2023/04/12 04:02:30;;;;;;;2.88;1.00;;;;;;;7.59;100.00;99928.34;5077112;28;20021;-35
2023/04/12 04:04:56;;;;;;;3.45;1.10;;;;;;;7.60;100.00;99930.78;5076279;28;20047;-36
2023/04/12 04:07:21;;;;;;;2.17;1.02;;;;;;;7.52;100.00;99912.34;5077326;28;20074;-36
2023/04/12 04:09:47;;;;;;;2.85;1.00;;;;;;;7.59;100.00;99920.28;5077063;28;20041;-36
2023/04/12 04:12:12;;;;;;;3.17;0.90;;;;;;;7.57;100.00;99909.75;5076114;28;20110;-35
2023/04/12 04:14:37;;;;;;;2.23;0.97;;;;;;;7.56;100.00;99899.22;5077305;28;20033;-36
2023/04/12 04:17:03;;;;;;;1.37;0.67;;;;;;;7.57;100.00;99900.88;5076687;28;20020;-36
2023/04/12 04:19:28;;;;;;;3.40;1.10;;;;;;;7.56;100.00;99891.94;5076007;28;20016;-35
2023/04/12 04:21:55;;;;;;;2.17;0.90;;;;;;;7.55;100.00;99900.28;5076508;28;20027;-36
2023/04/12 04:24:21;;;;;;;1.77;0.95;;;;;;;7.50;100.00;99882.13;5076192;28;20629;-36
2023/04/12 04:26:46;;;;;;;1.95;0.80;;;;;;;7.57;100.00;99884.72;5077069;28;20020;-36
2023/04/12 04:29:12;;;;;;;3.03;1.10;;;;;;;7.55;100.00;99884.13;5076195;28;20021;-36
2023/04/12 04:31:37;;;;;;;3.97;1.17;;;;;;;7.51;100.00;99878.38;5076213;28;20050;-36
2023/04/12 04:34:04;;;;;;;2.57;1.00;;;;;;;7.53;100.00;99884.38;5075752;28;20024;-36
2023/04/12 04:36:33;;;;;;;1.90;0.90;;;;;;;7.48;100.00;99866.25;5076862;28;20070;-36
2023/04/12 04:38:59;;;;;;;3.00;1.15;;;;;;;7.48;100.00;99871.63;5076002;28;20020;-36
2023/04/12 04:41:25;;;;;;;2.45;1.40;;;;;;;7.52;100.00;99866.59;5076222;28;20028;-36
2023/04/12 04:43:52;;;;;;;2.83;1.27;;;;;;;7.52;100.00;99871.97;5075597;28;20408;-36
2023/04/12 04:46:20;;;;;;;3.75;1.27;;;;;;;7.52;100.00;99871.97;5076143;28;20342;-36
2023/04/12 04:48:50;;;;;;;2.97;1.10;;;;;;;7.55;100.00;99865.28;5075802;28;20346;-36
2023/04/12 04:51:16;;;;;;;2.65;0.90;;;;;;;7.48;100.00;99849.28;5076077;28;20173;-36
2023/04/12 04:53:42;;;;;;;2.50;1.00;;;;;;;7.52;100.00;99855.84;5075952;28;20099;-36
2023/04/12 04:56:08;;;;;;;3.08;1.02;;;;;;;7.55;100.00;99859.91;5075990;28;20028;-36
2023/04/12 04:58:33;;;;;;;6.20;2.13;;;;;;;7.54;100.00;99869.03;5076099;28;20330;-36
2023/04/12 05:00:58;;;;;;;2.03;0.90;;;;;;;7.53;100.00;99852.09;5076400;28;20181;-36
2023/04/12 05:03:27;;;;;;;2.00;1.00;;;;;;;7.56;100.00;99861.53;5075791;28;20456;-36
2023/04/12 05:05:53;;;;;;;3.20;1.15;;;;;;;7.55;100.00;99865.28;5075769;28;20028;-36
2023/04/12 05:08:18;;;;;;;3.58;1.30;;;;;;;7.56;100.00;99864.22;5075653;28;20458;-36
2023/04/12 05:10:43;;;;;;;4.03;1.50;;;;;;;7.56;100.00;99854.28;5075725;28;20107;-36
2023/04/12 05:13:09;;;;;;;2.27;1.20;;;;;;;7.56;100.00;99837.34;5075393;28;20498;-36
2023/04/12 05:15:34;;;;;;;2.23;0.90;;;;;;;7.61;100.00;99838.28;5075054;28;20028;-36
2023/04/12 05:18:00;;;;;;;3.03;1.02;;;;;;;7.57;100.00;99847.06;5074916;28;20024;-36
2023/04/12 05:20:26;;;;;;;2.50;1.05;;;;;;;7.56;100.00;99850.78;5075465;28;20021;-36
2023/04/12 05:22:51;;;;;;;2.97;1.13;;;;;;;7.60;100.00;99836.63;5075111;28;20020;-36
2023/04/12 05:25:16;;;;;;;3.90;0.93;;;;;;;7.60;100.00;99825.88;5075122;28;20024;-36
2023/04/12 05:27:43;;;;;;;1.83;1.05;;;;;;;7.61;100.00;99834.75;5075514;28;20497;-36
2023/04/12 05:30:09;;;;;;;2.50;1.25;;;;;;;7.52;100.00;99812.78;5075266;28;20111;-37
2023/04/12 05:32:34;;;;;;;3.88;1.38;;;;;;;7.60;100.00;99828.56;5074638;28;20513;-35
2023/04/12 05:34:59;;;;;;;2.22;1.30;;;;;;;7.61;100.00;99827.53;5075459;28;20487;-36
2023/04/12 05:37:26;;;;;;;1.43;1.03;;;;;;;7.49;100.00;99803.31;5075079;28;20024;-36
2023/04/12 05:39:52;;;;;;;4.53;1.40;;;;;;;7.65;100.00;99815.22;5074426;28;20020;-35
2023/04/12 05:42:17;;;;;;;4.27;1.40;;;;;;;7.61;100.00;99816.75;5074464;28;20020;-36
2023/04/12 05:44:44;;;;;;;3.27;1.40;;;;;;;7.63;100.00;99814.63;5075298;28;20255;-36
2023/04/12 05:47:09;;;;;;;2.22;1.20;;;;;;;7.61;100.00;99806.00;5074553;28;20145;-36
2023/04/12 05:49:34;;;;;;;2.23;1.13;;;;;;;7.67;100.00;99815.00;5074631;28;20036;-36
2023/04/12 05:52:01;;;;;;;2.60;1.20;;;;;;;7.67;100.00;99820.38;5074266;28;20279;-36
2023/04/12 05:54:26;;;;;;;;;;;;;;;7.73;100.00;99819.41;5075851;28;20349;-36
2023/04/12 05:56:53;;;;;;;3.05;1.20;;;;;;;7.70;100.00;99814.50;5074451;28;19904;-37
2023/04/12 05:59:18;;;;;;;3.50;1.20;;;;;;;7.73;100.00;99817.53;5074395;28;20021;-36
2023/04/12 06:01:44;;;;;;;3.03;1.30;;;;;;;7.73;100.00;99814.03;5074061;28;20051;-36
2023/04/12 06:04:10;;;;;;;2.67;1.10;;;;;;;7.75;100.00;99817.28;5074348;28;20151;-35
2023/04/12 06:06:35;;;;;;;2.40;1.33;;;;;;;7.77;100.00;99815.19;5075161;28;20058;-36
2023/04/12 06:09:03;;;;;;;1.97;1.10;;;;;;;7.80;100.00;99813.91;5073899;28;20032;-36
2023/04/12 06:11:28;;;;;;;2.92;1.35;;;;;;;7.77;100.00;99809.00;5073983;28;20028;-37
2023/04/12 06:13:54;;;;;;;2.70;1.30;;;;;;;7.76;100.00;99808.19;5073891;28;20024;-37
2023/04/12 06:16:19;;;;;;;2.38;1.02;;;;;;;7.81;100.00;99800.22;5074886;28;20412;-37
2023/04/12 06:18:45;;;;;;;2.10;1.07;;;;;;;7.84;100.00;99804.28;5074355;28;20020;-36
2023/04/12 06:21:10;;;;;;;2.63;1.30;;;;;;;7.83;100.00;99813.44;5074293;28;20110;-36
2023/04/12 06:23:35;;;;;;;2.23;1.10;;;;;;;7.88;100.00;99821.59;5074066;28;20262;-35
2023/04/12 06:26:01;;;;;;;2.30;1.20;;;;;;;7.88;100.00;99817.03;5074872;28;20103;-36
2023/04/12 06:28:26;;;;;;;2.58;1.20;;;;;;;7.92;100.00;99818.19;5074186;28;20449;-36
2023/04/12 06:30:52;;;;;;;1.67;1.10;;;;;;;7.86;100.00;99807.59;5073963;28;20409;-35
2023/04/12 06:33:21;;;;;;;3.53;1.40;;;;;;;7.85;100.00;99808.63;5074090;28;20266;-36
2023/04/12 06:35:46;;;;;;;4.80;1.23;;;;;;;7.82;100.00;99790.28;5074202;28;20078;-36
2023/04/12 06:38:12;;;;;;;2.87;1.50;;;;;;;7.86;100.00;99803.00;5073801;28;20448;-36
2023/04/12 06:40:37;;;;;;;1.60;1.20;;;;;;;7.86;100.00;99803.00;5074307;28;20025;-37
2023/04/12 06:43:02;;;;;;;3.27;1.73;;;;;;;7.90;100.00;99809.53;5074057;28;20275;-36
2023/04/12 06:45:28;;;;;;;4.27;1.50;;;;;;;7.95;100.00;99820.44;5073795;28;20043;-35
2023/04/12 06:47:55;;;;;;;1.83;1.33;;;;;;;7.96;100.00;99811.28;5073713;28;20024;-35
2023/04/12 06:50:21;;;;;;;3.08;1.60;;;;;;;7.98;100.00;99803.78;5073939;28;20084;-36
2023/04/12 06:52:47;;;;;;;2.55;1.48;;;;;;;8.00;100.00;99809.75;5073614;28;20024;-35
2023/04/12 06:55:13;;;;;;;2.85;1.85;;;;;;;7.95;100.00;99798.91;5073655;28;20024;-36
2023/04/12 06:57:41;;;;;;;2.78;1.55;;;;;;;8.04;100.00;99812.78;5073909;28;20073;-35
2023/04/12 07:00:06;;;;;;;2.30;1.40;;;;;;;8.05;100.00;99808.19;5074343;28;20020;-35
2023/04/12 07:02:32;;;;;;;2.40;1.80;;;;;;;8.07;100.00;99808.81;5073541;28;20102;-35
2023/04/12 07:04:57;;;;;;;2.30;1.63;;;;;;;8.11;100.00;99815.34;5073327;28;20016;-35
2023/04/12 07:07:23;;;;;;;4.07;1.80;;;;;;;8.12;100.00;99809.72;5074047;28;20298;-36
2023/04/12 07:09:48;;;;;;;2.20;1.70;;;;;;;8.19;100.00;99812.25;5073811;28;20020;-35
2023/04/12 07:12:13;;;;;;;3.37;2.10;;;;;;;8.19;100.00;99812.25;5072224;28;20108;-36
2023/04/12 07:14:39;;;;;;;4.70;1.70;;;;;;;8.16;100.00;99800.09;5073157;28;20255;-35
2023/04/12 07:17:05;;;;;;;3.38;1.98;;;;;;;8.18;100.00;99806.06;5073389;28;20117;-36
2023/04/12 07:19:30;;;;;;;4.15;1.90;;;;;;;8.27;100.00;99812.69;5073678;28;20070;-35
2023/04/12 07:21:56;;;;;;;5.45;2.08;;;;;;;8.31;100.00;99814.91;5073649;28;20346;-36
2023/04/12 07:24:22;;;;;;;3.97;2.05;;;;;;;8.33;100.00;99810.91;5077401;28;20028;-36
2023/04/12 07:26:47;;;;;;;4.63;1.90;;;;;;;8.36;100.00;99815.84;5077985;28;20028;-35
2023/04/12 07:29:12;;;;;;;4.43;2.20;;;;;;;8.37;100.00;99808.59;5077301;28;20028;-35
2023/04/12 07:31:38;;;;;;;4.57;1.83;;;;;;;8.36;100.00;99805.06;5077573;28;20020;-35
2023/04/12 07:34:03;;;;;;;4.87;2.33;;;;;;;8.45;100.00;99813.59;5076991;28;20103;-35
2023/04/12 07:36:30;;;;;;;5.67;3.07;;;;;;;8.48;100.00;99811.22;5076908;28;20024;-36
2023/04/12 07:38:55;;;;;;;2.55;1.75;;;;;;;8.50;100.00;99806.41;5076769;28;20043;-35
2023/04/12 07:41:21;;;;;;;4.75;2.28;;;;;;;8.57;100.00;99802.75;5077568;28;20342;-36
2023/04/12 07:43:47;;;;;;;;;;;;;;;8.69;100.00;99803.50;5077928;28;20146;-36
2023/04/12 07:46:12;;;;;;;5.22;2.13;;;;;;;8.64;100.00;99787.25;5075770;28;20362;-36
2023/04/12 07:48:37;;;;;;;6.07;2.17;;;;;;;8.74;100.00;99792.81;5077138;28;20024;-35
2023/04/12 07:51:03;;;;;;;5.07;1.87;;;;;;;8.77;100.00;99797.69;5077465;28;20395;-36
2023/04/12 07:53:30;;;;;;;3.55;1.83;;;;;;;8.77;100.00;99803.88;5077352;28;20013;-36
2023/04/12 07:55:55;;;;;;;4.90;1.98;;;;;;;8.79;100.00;99797.47;5076468;28;20021;-36
2023/04/12 07:58:22;;;;;;;4.78;2.10;;;;;;;8.76;100.00;99790.66;5077368;28;20028;-36
2023/04/12 08:00:48;;;;;;;3.92;1.80;;;;;;;8.72;100.00;99779.56;5077004;28;20052;-36
2023/04/12 08:03:14;;;;;;;;;;;;;;;8.87;100.00;99789.75;5077136;28;20021;-35
2023/04/12 08:05:40;;;;;;;3.65;1.88;;;;;;;8.77;100.00;99782.31;5076592;28;19991;-35
2023/04/12 08:08:08;;;;;;;5.03;1.85;;;;;;;8.83;100.00;99794.00;5076577;28;20399;-35
2023/04/12 08:10:35;;;;;;;5.75;2.50;;;;;;;8.86;100.00;99790.84;5076515;28;20452;-37
2023/04/12 08:13:00;;;;;;;5.95;1.98;;;;;;;8.85;100.00;99796.47;5076447;28;20017;-35
2023/04/12 08:15:26;;;;;;;8.13;2.42;;;;;;;8.83;100.00;99802.09;5076161;28;20031;-35
2023/04/12 08:17:51;;;;;;;6.83;1.97;;;;;;;8.80;100.00;99809.88;5076453;28;20103;-35
2023/04/12 08:20:16;;;;;;;5.50;2.17;;;;;;;8.77;100.00;99803.88;5077198;28;20030;-36
2023/04/12 08:22:44;;;;;;;4.55;2.00;;;;;;;8.73;100.00;99802.75;5076319;28;20058;-36
2023/04/12 08:25:09;;;;;;;5.32;1.63;;;;;;;8.67;100.00;99817.19;5076342;28;20154;-35
2023/04/12 08:27:35;;;;;;;7.22;2.15;;;;;;;8.69;100.00;99806.19;5076497;28;20107;-36
2023/04/12 08:30:01;;;;;;;4.32;1.85;;;;;;;8.63;100.00;99797.19;5076017;28;20063;-35
2023/04/12 08:32:26;;;;;;;4.68;1.83;;;;;;;8.73;100.00;99810.00;5075844;28;20028;-35
2023/04/12 08:34:52;;;;;;;6.38;2.58;;;;;;;8.77;100.00;99811.97;5076284;28;20029;-36
2023/04/12 08:37:17;;;;;;;3.87;1.73;;;;;;;8.79;100.00;99808.25;5076320;28;20105;-35
2023/04/12 08:39:43;;;;;;;5.43;1.87;;;;;;;8.80;100.00;99807.19;5076265;28;20251;-35
2023/04/12 08:42:08;;;;;;;4.97;2.00;;;;;;;8.85;100.00;99805.38;5075638;28;20087;-35
2023/04/12 08:44:36;;;;;;;12.52;2.60;;;;;;;8.96;100.00;99795.56;5075957;28;20255;-36
2023/04/12 08:47:03;;;;;;;5.68;2.47;;;;;;;9.04;100.00;99787.06;5076189;28;20025;-36
2023/04/12 08:49:31;;;;;;;5.90;2.58;;;;;;;9.16;100.00;99790.47;5075851;28;20027;-36
2023/04/12 08:51:59;;;;;;;4.85;2.40;;;;;;;9.26;100.00;99790.63;5075800;28;20412;-35
2023/04/12 08:54:26;;;;;;;6.70;2.70;;;;;;;9.58;100.00;99791.88;5075697;28;20048;-35
2023/04/12 08:56:52;;;;;;;8.68;2.50;;;;;;;9.66;100.00;99791.44;5076264;28;20016;-35
2023/04/12 08:59:19;;;;;;;8.48;2.53;;;;;;;9.66;100.00;99775.22;5075669;28;20178;-36
2023/04/12 09:01:44;;;;;;;8.30;2.30;;;;;;;9.82;100.00;99789.75;5075629;28;20384;-36
2023/04/12 09:04:10;;;;;;;6.18;2.33;;;;;;;9.89;100.00;99787.66;5075166;28;20025;-36
2023/04/12 09:06:35;;;;;;;7.63;2.30;;;;;;;9.98;100.00;99795.06;5075622;28;20023;-36
2023/04/12 09:09:05;;;;;;;11.13;2.93;;;;;;;10.10;100.00;99788.72;5075449;28;20093;-35
2023/04/12 09:11:31;;;;;;;7.30;2.38;;;;;;;10.19;100.00;99787.19;5075120;28;20346;-36
2023/04/12 09:13:57;;;;;;;;;;;;;;;10.39;100.00;99776.63;5075700;28;20020;-36
2023/04/12 09:16:36;;;;;;;9.75;2.33;;;;;;;10.58;100.00;99777.88;5076123;28;20328;-36
2023/04/12 09:19:02;;;;;;;6.60;1.85;;;;;;;10.78;100.00;99777.28;5075173;28;20016;-35
2023/04/12 09:21:28;;;;;;;10.00;2.92;;;;;;;10.96;100.00;99773.31;5075125;28;20023;-35
2023/04/12 09:24:08;;;;;;;11.63;2.88;;;;;;;11.14;100.00;99772.13;5074805;28;20032;-35
2023/04/12 09:26:34;;;;;;;11.90;3.33;;;;;;;11.28;100.00;99767.88;5075336;28;20086;-36
2023/04/12 09:29:00;;;;;;;;;;;;;;;11.56;100.00;99758.53;5075157;28;20033;-36
2023/04/12 09:31:25;;;;;;;8.50;3.03;;;;;;;11.60;100.00;99764.22;5075612;28;19905;-36
2023/04/12 09:33:51;;;;;;;12.87;4.70;;;;;;;11.51;100.00;99766.63;5074876;28;20044;-36
2023/04/12 09:36:17;;;;;;;10.35;3.55;;;;;;;11.26;100.00;99766.50;5074922;28;20259;-36
2023/04/12 09:39:03;;;;;;;10.90;4.07;;;;;;;11.16;100.00;99769.94;5074762;28;20020;-35
2023/04/12 09:41:30;;;;;;;12.20;4.47;;;;;;;11.01;100.00;99765.25;5074989;28;20392;-36
2023/04/12 09:43:57;;;;;;;9.18;3.13;;;;;;;11.05;100.00;99763.66;5075333;28;20028;-35
2023/04/12 09:46:23;;;;;;;9.15;3.42;;;;;;;11.16;100.00;99755.59;5074365;28;20028;-35
2023/04/12 09:48:59;;;;;;;10.02;3.20;;;;;;;11.23;100.00;99769.75;5074581;28;20108;-36
2023/04/12 09:51:31;;;;;;;12.40;3.57;;;;;;;11.16;100.00;99766.44;5074868;28;20052;-35
2023/04/12 09:53:59;;;;;;;12.95;3.90;;;;;;;11.13;100.00;99765.06;5075325;28;20032;-35
2023/04/12 09:56:28;;;;;;;8.90;3.70;;;;;;;11.04;100.00;99740.38;5074470;28;20028;-35
2023/04/12 09:58:54;;;;;;;12.90;3.75;;;;;;;11.22;100.00;99746.44;5074679;28;20029;-36
2023/04/12 10:01:22;;;;;;;13.90;3.97;;;;;;;11.17;100.00;99747.22;5075176;28;20047;-36
2023/04/12 10:03:48;;;;;;;13.65;4.22;;;;;;;11.08;100.00;99756.94;5074878;28;20032;-36
2023/04/12 10:06:14;;;;;;;14.48;4.20;;;;;;;10.94;100.00;99750.34;5073927;28;20027;-35
2023/04/12 10:08:40;;;;;;;12.05;3.42;;;;;;;10.89;100.00;99759.22;5074049;28;20434;-36
2023/04/12 10:11:10;;;;;;;;;;;;;;;10.94;100.00;99758.44;5074382;28;20107;-36
2023/04/12 10:13:36;;;;;;;11.18;3.83;;;;;;;10.67;100.00;99764.72;5074137;28;19908;-36
2023/04/12 10:16:04;;;;;;;10.30;2.88;;;;;;;10.54;100.00;99741.66;5074171;28;20028;-35
2023/04/12 10:18:31;;;;;;;14.35;3.65;;;;;;;10.50;100.00;99755.94;5074639;28;20017;-35
2023/04/12 10:20:58;;;;;;;11.65;3.47;;;;;;;10.53;100.00;99747.28;5074841;28;20031;-35
2023/04/12 10:23:24;;;;;;;11.52;3.22;;;;;;;10.74;100.00;99764.53;5074602;28;20023;-36
2023/04/12 10:25:52;;;;;;;13.30;3.38;;;;;;;10.82;100.00;99750.50;5074279;28;20453;-35
2023/04/12 10:28:21;;;;;;;8.20;2.88;;;;;;;11.12;100.00;99757.19;5072930;28;20449;-36
2023/04/12 10:30:49;;;;;;;11.18;3.20;;;;;;;11.27;100.00;99752.72;5074207;28;20333;-36
2023/04/12 10:33:17;;;;;;;10.45;3.10;;;;;;;11.21;100.00;99723.97;5073819;28;20027;-35
2023/04/12 10:35:55;;;;;;;11.07;2.85;;;;;;;11.39;100.00;99747.09;5073574;28;20032;-35
2023/04/12 10:38:20;;;;;;;12.70;3.47;;;;;;;11.40;100.00;99740.59;5073814;28;20020;-35
2023/04/12 10:41:17;;;;;;;12.40;3.50;;;;;;;11.53;100.00;99763.66;5074376;28;20025;-36
2023/04/12 10:43:47;;;;;;;13.60;3.13;;;;;;;11.47;100.00;99765.53;5073456;28;20107;-36
2023/04/12 10:46:37;;;;;;;10.38;2.85;;;;;;;11.52;100.00;99770.16;5074599;28;20081;-36
2023/04/12 10:49:18;;;;;;;12.07;3.08;;;;;;;11.37;100.00;99768.19;5074016;28;20095;-36
2023/04/12 10:52:08;;;;;;;10.55;2.80;;;;;;;11.34;96.49;99771.41;5074766;28;20036;-36
2023/04/12 10:54:34;;;;;;;9.85;2.90;;;;;;;11.28;97.49;99767.88;5073597;28;20025;-36
2023/04/12 10:57:01;;;;;;;10.45;2.70;;;;;;;11.04;96.77;99737.69;5073840;28;20126;-36
2023/04/12 10:59:49;;;;;;;14.77;4.43;;;;;;;11.16;90.45;99785.38;5073511;28;20029;-36
2023/04/12 11:02:15;;;;;;;8.40;2.08;;;;;;;11.06;89.91;99776.09;5073250;28;20052;-36
2023/04/12 11:05:18;;;;;;;7.15;2.40;;;;;;;11.06;92.97;99770.69;5074053;28;20035;-36
2023/04/12 11:07:44;;;;;;;10.80;2.70;;;;;;;10.89;95.31;99769.22;5011744;28;20107;-36
2023/04/12 11:10:16;;;;;;;10.88;2.67;;;;;;;10.87;92.95;99774.06;5061743;28;20032;-36
2023/04/12 11:12:49;;;;;;;11.13;2.75;;;;;;;10.97;97.61;99769.53;5073136;28;20023;-36
2023/04/12 11:15:14;;;;;;;9.45;2.65;;;;;;;10.88;95.55;99776.50;5073945;28;20433;-36
2023/04/12 11:17:40;;;;;;;10.23;3.17;;;;;;;10.93;98.06;99773.03;5073634;28;20027;-36
2023/04/12 11:20:10;;;;;;;8.60;2.87;;;;;;;10.79;97.55;99776.19;5073656;28;20074;-36
2023/04/12 11:22:37;;;;;;;10.45;3.10;;;;;;;10.70;98.16;99774.22;5073680;28;20024;-36
2023/04/12 11:25:02;;;;;;;9.95;2.83;;;;;;;10.69;98.52;99791.53;5073895;28;20043;-36
2023/04/12 11:27:29;;;;;;;10.40;2.42;;;;;;;10.62;99.17;99785.50;5073392;28;20461;-36
2023/04/12 11:29:58;;;;;;;14.13;3.80;;;;;;;10.48;100.00;99776.97;5072131;28;20021;-36
2023/04/12 11:32:26;;;;;;;10.70;3.22;;;;;;;10.44;100.00;99787.50;5073280;28;20526;-36